Time;durP1;ratioP1;P1;durP2;ratioP2;P2;SDS_P1;SDS_P2;PMS_P1;PMS_P2;Temp;Humidity;BMP_temperature;BMP_pressure;BME280_temperature;BME280_humidity;BME280_pressure;Samples;Min_cycle;Max_cycle;Signal;HPM_P1;HPM_P2
2023/07/08 00:00:42;;;;;;;6.13;4.53;;;20.50;99.90;;;;;;5033435;28;20057;-73
2023/07/08 00:03:08;;;;;;;9.02;4.85;;;20.40;99.90;;;;;;5024762;28;20048;-70
2023/07/08 00:05:35;;;;;;;11.57;5.20;;;20.40;99.90;;;;;;5031660;28;20064;-73
2023/07/08 00:08:00;;;;;;;7.60;4.70;;;20.40;99.90;;;;;;5036184;28;20049;-71
2023/07/08 00:10:31;;;;;;;8.02;4.93;;;20.30;99.90;;;;;;5033513;28;20037;-72
2023/07/08 00:12:58;;;;;;;9.13;4.60;;;20.30;99.90;;;;;;5030907;28;20674;-72
2023/07/08 00:15:30;;;;;;;8.32;5.10;;;20.30;99.90;;;;;;5013000;28;20052;-72
2023/07/08 00:17:56;;;;;;;8.63;4.80;;;20.30;99.90;;;;;;5029054;28;20141;-73
2023/07/08 00:20:23;;;;;;;7.38;4.35;;;20.20;99.90;;;;;;5032598;28;20116;-73
2023/07/08 00:22:52;;;;;;;8.90;5.32;;;20.20;99.90;;;;;;5016261;28;20053;-73
2023/07/08 00:25:21;;;;;;;6.32;4.50;;;20.10;99.90;;;;;;5023117;28;20128;-73
2023/07/08 00:27:47;;;;;;;12.20;5.22;;;20.10;99.90;;;;;;5031810;28;21870;-73
2023/07/08 00:30:23;;;;;;;8.35;5.03;;;20.10;99.90;;;;;;5031920;28;20052;-69
2023/07/08 00:32:53;;;;;;;6.70;4.70;;;20.10;99.90;;;;;;5009067;28;20053;-73
2023/07/08 00:35:39;;;;;;;7.15;4.90;;;20.00;99.90;;;;;;5033299;28;20053;-73
2023/07/08 00:38:26;;;;;;;7.50;5.03;;;20.00;99.90;;;;;;5008237;28;20041;-73
2023/07/08 00:41:13;;;;;;;7.88;5.20;;;19.90;99.90;;;;;;5010908;28;20060;-73
2023/07/08 00:43:41;;;;;;;9.25;5.50;;;19.90;99.90;;;;;;5026424;28;20122;-73
2023/07/08 00:46:29;;;;;;;7.97;5.20;;;19.80;99.90;;;;;;5032318;28;20175;-73
2023/07/08 00:49:07;;;;;;;7.07;5.20;;;19.80;99.90;;;;;;5007053;28;20103;-73
2023/07/08 00:51:34;;;;;;;8.27;5.63;;;19.70;99.90;;;;;;5030825;28;21212;-71
2023/07/08 00:53:59;;;;;;;8.13;5.07;;;19.70;99.90;;;;;;5032871;28;20102;-72
2023/07/08 00:56:28;;;;;;;6.95;5.55;;;19.60;99.90;;;;;;5027895;28;20180;-74
2023/07/08 00:59:02;;;;;;;8.32;5.00;;;19.60;99.90;;;;;;5008624;28;21614;-72
2023/07/08 01:01:32;;;;;;;10.15;5.75;;;19.60;99.90;;;;;;5033331;28;20459;-73
2023/07/08 01:04:22;;;;;;;8.73;5.28;;;19.60;99.90;;;;;;5015456;28;20056;-72
2023/07/08 01:06:57;;;;;;;8.60;5.03;;;19.50;99.90;;;;;;4996453;28;20053;-72
2023/07/08 01:09:28;;;;;;;8.48;5.85;;;19.50;99.90;;;;;;5034429;28;20052;-72
2023/07/08 01:11:57;;;;;;;8.43;5.70;;;19.50;99.90;;;;;;5032158;28;20500;-73
2023/07/08 01:14:26;;;;;;;8.55;4.78;;;19.40;99.90;;;;;;5029052;28;20054;-72
2023/07/08 01:16:52;;;;;;;7.50;5.35;;;19.40;99.90;;;;;;5008699;28;20430;-72
2023/07/08 01:19:31;;;;;;;8.40;5.55;;;19.40;99.90;;;;;;5027741;28;20045;-72
2023/07/08 01:21:58;;;;;;;8.77;5.50;;;19.40;99.90;;;;;;5031296;28;20052;-73
2023/07/08 01:24:24;;;;;;;8.98;5.65;;;19.30;99.90;;;;;;5014855;28;20916;-73
2023/07/08 01:26:51;;;;;;;9.00;5.32;;;19.30;99.90;;;;;;5027509;28;20053;-70
2023/07/08 01:29:17;;;;;;;9.25;5.35;;;19.30;99.90;;;;;;5014113;28;20057;-73
2023/07/08 01:31:48;;;;;;;7.88;5.38;;;19.30;99.90;;;;;;5032165;28;20079;-73
2023/07/08 01:34:15;;;;;;;7.97;5.80;;;19.20;99.90;;;;;;5027548;28;20179;-71
2023/07/08 01:36:49;;;;;;;8.07;5.70;;;19.20;99.90;;;;;;5028470;28;20040;-71
2023/07/08 01:39:19;;;;;;;8.05;5.10;;;19.10;99.90;;;;;;5037478;28;20496;-73
2023/07/08 01:41:45;;;;;;;7.35;5.43;;;19.10;99.90;;;;;;5032787;28;20131;-72
2023/07/08 01:44:22;;;;;;;9.00;5.30;;;19.10;99.90;;;;;;5009111;28;21802;-72
2023/07/08 01:46:50;;;;;;;9.30;5.80;;;19.10;99.90;;;;;;5031133;28;21872;-72
2023/07/08 01:49:16;;;;;;;9.63;5.95;;;19.00;99.90;;;;;;5031623;28;20091;-71
2023/07/08 01:51:42;;;;;;;8.90;5.70;;;19.00;99.90;;;;;;5030772;28;20532;-74
2023/07/08 01:54:07;;;;;;;9.57;5.55;;;18.90;99.90;;;;;;5027297;28;20047;-72
2023/07/08 01:56:33;;;;;;;8.38;5.47;;;18.90;99.90;;;;;;5027583;28;20534;-71
2023/07/08 01:58:59;;;;;;;7.53;5.40;;;18.90;99.90;;;;;;5035684;28;20066;-74
2023/07/08 02:01:24;;;;;;;7.88;5.72;;;18.90;99.90;;;;;;5051675;28;20066;-73
2023/07/08 02:03:50;;;;;;;8.15;5.75;;;18.90;99.90;;;;;;5045510;28;20044;-74
2023/07/08 02:06:16;;;;;;;9.77;6.60;;;18.80;99.90;;;;;;5047562;28;20048;-73
2023/07/08 02:08:41;;;;;;;8.95;5.57;;;18.80;99.90;;;;;;5034076;28;20044;-73
2023/07/08 02:11:07;;;;;;;8.80;5.60;;;18.80;99.90;;;;;;5049570;28;20036;-74
2023/07/08 02:13:33;;;;;;;8.70;5.55;;;18.80;99.90;;;;;;5049846;28;20491;-73
2023/07/08 02:15:58;;;;;;;8.40;5.85;;;18.80;99.90;;;;;;5041418;28;20106;-73
2023/07/08 02:18:24;;;;;;;10.77;5.97;;;18.70;99.90;;;;;;5037725;28;20063;-72
2023/07/08 02:20:50;;;;;;;8.38;5.72;;;18.70;99.90;;;;;;5049880;28;20048;-72
2023/07/08 02:23:16;;;;;;;11.70;6.15;;;18.70;99.90;;;;;;5051054;28;20082;-73
2023/07/08 02:25:49;;;;;;;8.40;5.45;;;18.70;99.90;;;;;;5048448;28;20395;-73
2023/07/08 02:28:15;;;;;;;7.18;5.65;;;18.60;99.90;;;;;;5048033;28;20045;-72
2023/07/08 02:30:41;;;;;;;8.27;4.97;;;18.60;99.90;;;;;;5044570;28;20044;-72
2023/07/08 02:33:06;;;;;;;9.07;5.53;;;18.50;99.90;;;;;;5045413;28;20566;-73
2023/07/08 02:35:32;;;;;;;10.45;5.63;;;18.50;99.90;;;;;;5051459;28;20036;-73
2023/07/08 02:37:57;;;;;;;8.52;5.93;;;18.50;99.90;;;;;;5049268;28;20040;-75
2023/07/08 02:40:24;;;;;;;7.00;5.70;;;18.50;99.90;;;;;;5022841;28;20083;-70
2023/07/08 02:42:50;;;;;;;8.15;5.90;;;18.50;99.90;;;;;;5047654;28;20499;-73
2023/07/08 02:45:17;;;;;;;9.77;6.53;;;18.50;99.90;;;;;;5047290;28;20047;-72
2023/07/08 02:47:43;;;;;;;8.80;5.68;;;18.40;99.90;;;;;;5032731;28;20098;-72
2023/07/08 02:50:11;;;;;;;9.98;5.80;;;18.40;99.90;;;;;;5039841;28;20048;-73
2023/07/08 02:52:36;;;;;;;8.95;6.15;;;18.40;99.90;;;;;;5055160;28;20077;-71
2023/07/08 02:55:03;;;;;;;9.23;6.10;;;18.40;99.90;;;;;;5033722;28;20040;-72
2023/07/08 02:57:28;;;;;;;8.20;5.87;;;18.30;99.90;;;;;;5037648;28;20328;-73
2023/07/08 02:59:54;;;;;;;8.48;6.13;;;18.30;99.90;;;;;;5051709;28;20522;-74
2023/07/08 03:02:21;;;;;;;8.73;5.93;;;18.30;99.90;;;;;;5036804;28;20053;-72
2023/07/08 03:04:49;;;;;;;;;;;18.30;99.90;;;;;;5031290;28;20170;-72
2023/07/08 03:07:16;;;;;;;8.70;6.10;;;18.20;99.90;;;;;;5053032;28;19924;-73
2023/07/08 03:09:42;;;;;;;8.50;6.20;;;18.20;99.90;;;;;;5050923;28;20102;-72
2023/07/08 03:12:09;;;;;;;7.13;5.72;;;18.20;99.90;;;;;;5049893;28;20033;-74
2023/07/08 03:14:36;;;;;;;8.57;5.82;;;18.20;99.90;;;;;;5055734;28;20576;-72
2023/07/08 03:17:02;;;;;;;6.78;5.85;;;18.20;99.90;;;;;;5050490;28;20047;-74
2023/07/08 03:19:27;;;;;;;8.65;5.95;;;18.20;99.90;;;;;;5055583;28;20052;-72
2023/07/08 03:21:53;;;;;;;7.60;6.03;;;18.10;99.90;;;;;;5049733;28;20569;-73
2023/07/08 03:24:19;;;;;;;8.48;6.35;;;18.10;99.90;;;;;;5054830;28;20032;-70
2023/07/08 03:26:46;;;;;;;7.15;5.82;;;18.10;99.90;;;;;;5053358;28;20518;-72
2023/07/08 03:29:16;;;;;;;9.30;6.60;;;18.10;99.90;;;;;;5055193;28;20090;-73
2023/07/08 03:31:41;;;;;;;7.70;5.82;;;18.10;99.90;;;;;;5059666;28;20105;-73
2023/07/08 03:34:10;;;;;;;7.22;5.90;;;18.10;99.90;;;;;;5035651;28;20185;-73
2023/07/08 03:36:50;;;;;;;7.07;5.55;;;18.10;99.90;;;;;;5051709;28;20040;-73
2023/07/08 03:39:21;;;;;;;8.02;6.20;;;18.00;99.90;;;;;;5033556;28;20053;-73
2023/07/08 03:41:48;;;;;;;8.35;5.88;;;18.00;99.90;;;;;;5033710;28;20079;-73
2023/07/08 03:44:15;;;;;;;8.27;6.53;;;18.00;99.90;;;;;;5045660;28;20052;-72
2023/07/08 03:46:42;;;;;;;7.60;6.15;;;18.00;99.90;;;;;;5047126;28;20409;-72
2023/07/08 03:49:09;;;;;;;9.00;6.13;;;17.90;99.90;;;;;;5026587;28;21991;-71
2023/07/08 03:51:37;;;;;;;9.13;6.55;;;18.00;99.90;;;;;;5054698;28;20056;-72
2023/07/08 03:54:04;;;;;;;10.25;6.65;;;18.00;99.90;;;;;;5050306;28;20095;-72
2023/07/08 03:56:30;;;;;;;9.93;5.95;;;17.90;99.90;;;;;;5035149;28;20495;-72
2023/07/08 03:58:56;;;;;;;8.57;6.30;;;17.90;99.90;;;;;;5047294;28;20052;-72
2023/07/08 04:01:24;;;;;;;8.00;6.15;;;17.90;99.90;;;;;;5053156;28;20044;-74
2023/07/08 04:03:52;;;;;;;7.82;5.57;;;18.00;99.90;;;;;;5048379;28;20037;-72
2023/07/08 04:06:19;;;;;;;8.32;5.93;;;17.90;99.90;;;;;;5055469;28;20074;-74
2023/07/08 04:08:44;;;;;;;6.75;5.78;;;18.00;99.90;;;;;;5044001;28;20068;-71
2023/07/08 04:11:15;;;;;;;7.90;5.82;;;18.00;99.90;;;;;;5036825;28;20175;-72
2023/07/08 04:13:41;;;;;;;7.82;6.43;;;18.00;99.90;;;;;;5035794;28;20052;-74
2023/07/08 04:16:18;;;;;;;12.10;6.15;;;18.00;99.90;;;;;;5054477;28;20101;-72
2023/07/08 04:18:44;;;;;;;7.97;6.55;;;18.00;99.90;;;;;;5050717;28;20114;-71
2023/07/08 04:21:09;;;;;;;6.60;5.88;;;18.00;99.90;;;;;;5050143;28;20040;-72
2023/07/08 04:23:35;;;;;;;9.23;6.43;;;18.00;99.90;;;;;;5050457;28;20074;-72
2023/07/08 04:26:01;;;;;;;8.50;6.28;;;18.10;99.90;;;;;;5051731;28;20058;-73
2023/07/08 04:28:27;;;;;;;8.15;6.10;;;18.10;99.90;;;;;;5030059;28;20121;-71
2023/07/08 04:30:53;;;;;;;9.02;6.50;;;18.10;99.90;;;;;;5052865;28;21038;-71
2023/07/08 04:33:18;;;;;;;10.15;6.18;;;18.10;99.90;;;;;;5030949;28;20044;-71
2023/07/08 04:35:45;;;;;;;9.25;6.20;;;18.20;99.90;;;;;;5053694;28;20044;-71
2023/07/08 04:38:21;;;;;;;8.15;6.30;;;18.20;99.90;;;;;;5053219;28;20778;-72
2023/07/08 04:40:47;;;;;;;8.47;6.00;;;18.30;99.90;;;;;;5054213;28;20049;-71
2023/07/08 04:43:14;;;;;;;10.10;6.13;;;18.30;99.90;;;;;;5026615;28;20135;-73
2023/07/08 04:45:42;;;;;;;9.32;5.93;;;18.40;99.90;;;;;;5046056;28;20128;-72
2023/07/08 04:48:13;;;;;;;7.70;5.88;;;18.40;99.90;;;;;;5037850;28;20075;-73
2023/07/08 04:50:43;;;;;;;8.77;6.47;;;18.40;99.90;;;;;;5055751;28;20437;-72
2023/07/08 04:53:09;;;;;;;8.55;5.97;;;18.40;99.90;;;;;;5051241;28;20052;-72
2023/07/08 04:55:37;;;;;;;7.93;6.32;;;18.50;99.90;;;;;;5054475;28;20041;-70
2023/07/08 04:58:03;;;;;;;7.53;5.95;;;18.60;99.90;;;;;;5053696;28;20155;-71
2023/07/08 05:00:29;;;;;;;8.25;6.05;;;18.60;99.90;;;;;;5032072;28;20135;-72
2023/07/08 05:02:55;;;;;;;7.30;6.10;;;18.70;99.90;;;;;;5046319;28;20052;-72
2023/07/08 05:05:21;;;;;;;8.10;6.30;;;18.70;99.90;;;;;;5029825;28;20055;-72
2023/07/08 05:07:49;;;;;;;8.13;6.18;;;18.70;99.90;;;;;;5054917;28;20041;-74
2023/07/08 05:10:15;;;;;;;6.63;5.63;;;18.80;99.90;;;;;;5029962;28;20044;-73
2023/07/08 05:12:45;;;;;;;7.95;5.70;;;18.80;99.90;;;;;;5026813;28;20044;-72
2023/07/08 05:15:12;;;;;;;6.70;5.90;;;18.80;99.90;;;;;;5051665;28;20648;-72
2023/07/08 05:17:38;;;;;;;7.32;5.82;;;18.90;99.90;;;;;;5024769;28;20129;-73
2023/07/08 05:20:10;;;;;;;8.40;6.07;;;19.00;99.90;;;;;;5051015;28;20499;-72
2023/07/08 05:22:36;;;;;;;8.38;6.03;;;19.00;99.90;;;;;;5051672;28;20051;-72
2023/07/08 05:25:03;;;;;;;6.70;5.60;;;19.10;99.90;;;;;;5057688;28;20049;-73
2023/07/08 05:27:29;;;;;;;8.02;5.47;;;19.10;99.90;;;;;;5054633;28;20037;-72
2023/07/08 05:29:55;;;;;;;7.28;5.50;;;19.20;99.90;;;;;;5049740;28;20090;-73
2023/07/08 05:32:20;;;;;;;7.93;5.32;;;19.20;99.90;;;;;;5023361;28;20431;-71
2023/07/08 05:34:47;;;;;;;8.00;5.38;;;19.30;99.90;;;;;;5045195;28;20119;-73
2023/07/08 05:37:13;;;;;;;8.48;5.45;;;19.40;99.90;;;;;;5020747;28;20056;-72
2023/07/08 05:39:39;;;;;;;9.33;5.70;;;19.40;99.90;;;;;;5042568;28;20044;-71
2023/07/08 05:42:05;;;;;;;8.25;5.40;;;19.40;99.90;;;;;;5050388;28;20807;-73
2023/07/08 05:44:31;;;;;;;10.32;5.65;;;19.50;99.90;;;;;;5049721;28;20559;-72
2023/07/08 05:46:56;;;;;;;8.10;5.65;;;19.50;99.90;;;;;;5054459;28;20052;-71
2023/07/08 05:49:22;;;;;;;6.25;5.13;;;19.60;99.90;;;;;;5053662;28;20058;-73
2023/07/08 05:51:48;;;;;;;6.97;5.72;;;19.70;99.90;;;;;;5029262;28;21917;-72
2023/07/08 05:54:14;;;;;;;6.60;4.80;;;19.80;99.90;;;;;;5028726;28;20067;-72
2023/07/08 05:56:43;;;;;;;8.60;5.25;;;19.80;99.90;;;;;;5052247;28;20085;-72
2023/07/08 05:59:08;;;;;;;9.98;5.20;;;19.90;99.90;;;;;;5041473;28;20061;-72
2023/07/08 06:01:34;;;;;;;7.40;5.13;;;19.90;99.90;;;;;;5010197;28;20392;-74
2023/07/08 06:04:00;;;;;;;7.25;5.10;;;20.00;99.90;;;;;;4999408;28;20033;-73
2023/07/08 06:06:27;;;;;;;7.35;4.70;;;20.10;99.90;;;;;;5000291;28;20049;-71
2023/07/08 06:08:53;;;;;;;8.50;5.22;;;20.20;99.90;;;;;;5014243;28;20098;-70
2023/07/08 06:11:19;;;;;;;6.97;5.00;;;20.30;99.90;;;;;;5025454;28;20053;-68
2023/07/08 06:13:46;;;;;;;6.17;4.70;;;20.30;99.90;;;;;;5010851;28;20041;-68
2023/07/08 06:16:11;;;;;;;8.18;4.60;;;20.40;99.90;;;;;;5020716;28;20092;-69
2023/07/08 06:18:37;;;;;;;7.30;5.05;;;20.40;99.90;;;;;;5002084;28;20060;-67
2023/07/08 06:21:03;;;;;;;8.40;4.78;;;20.50;99.90;;;;;;5007843;28;20136;-68
2023/07/08 06:23:29;;;;;;;6.53;4.90;;;20.50;99.90;;;;;;5022135;28;20040;-67
2023/07/08 06:25:56;;;;;;;6.18;4.70;;;20.60;99.90;;;;;;5026745;28;20440;-68
2023/07/08 06:28:22;;;;;;;7.00;4.65;;;20.60;99.90;;;;;;5005466;28;20052;-73
2023/07/08 06:30:50;;;;;;;7.07;4.78;;;20.70;99.90;;;;;;5012615;28;20122;-72
2023/07/08 06:33:16;;;;;;;5.70;4.40;;;20.80;99.90;;;;;;5021310;28;20059;-73
2023/07/08 06:35:42;;;;;;;6.20;4.35;;;20.80;99.90;;;;;;5020286;28;20041;-71
2023/07/08 06:38:09;;;;;;;9.48;4.90;;;20.90;99.90;;;;;;5026058;28;20055;-72
2023/07/08 06:40:35;;;;;;;5.40;4.82;;;21.00;99.90;;;;;;5008882;28;20036;-72
2023/07/08 06:43:03;;;;;;;6.97;4.70;;;21.10;99.90;;;;;;5022319;28;20376;-71
2023/07/08 06:45:29;;;;;;;6.28;4.88;;;21.20;99.90;;;;;;5008999;28;20048;-70
2023/07/08 06:47:55;;;;;;;6.45;4.72;;;21.20;99.90;;;;;;5027362;28;20052;-73
2023/07/08 06:50:20;;;;;;;8.02;4.50;;;21.30;99.90;;;;;;5004477;28;20137;-73
2023/07/08 06:52:46;;;;;;;6.75;4.65;;;21.40;99.90;;;;;;5010118;28;20040;-73
2023/07/08 06:55:13;;;;;;;7.22;4.68;;;21.50;99.90;;;;;;5022389;28;20092;-73
2023/07/08 06:57:38;;;;;;;6.43;4.50;;;21.50;99.90;;;;;;5026413;28;20717;-72
2023/07/08 07:00:07;;;;;;;8.10;4.88;;;21.60;99.90;;;;;;5016680;28;20060;-73
2023/07/08 07:02:33;;;;;;;6.40;4.43;;;21.60;99.90;;;;;;5024927;28;20049;-71
2023/07/08 07:04:59;;;;;;;6.88;4.55;;;21.70;99.90;;;;;;5020666;28;20059;-72
2023/07/08 07:07:27;;;;;;;6.03;4.72;;;21.70;99.90;;;;;;5020854;28;20163;-72
2023/07/08 07:09:54;;;;;;;6.45;4.20;;;21.80;99.90;;;;;;5018547;28;20080;-70
2023/07/08 07:12:20;;;;;;;7.85;4.40;;;21.90;99.90;;;;;;5023299;28;20037;-70
2023/07/08 07:14:46;;;;;;;7.70;4.47;;;22.00;99.90;;;;;;5021567;28;20436;-70
2023/07/08 07:17:12;;;;;;;6.45;4.50;;;22.10;99.90;;;;;;5028584;28;20048;-69
2023/07/08 07:19:38;;;;;;;7.28;4.40;;;22.10;99.90;;;;;;5022601;28;20052;-70
2023/07/08 07:22:04;;;;;;;6.53;4.57;;;22.20;99.90;;;;;;5017912;28;20091;-71
2023/07/08 07:24:29;;;;;;;6.70;4.45;;;22.30;99.90;;;;;;5024790;28;20041;-68
2023/07/08 07:26:55;;;;;;;7.10;4.30;;;22.30;99.90;;;;;;5025537;28;20082;-70
2023/07/08 07:29:23;;;;;;;6.45;4.53;;;22.40;99.90;;;;;;5024221;28;20079;-67
2023/07/08 07:31:49;;;;;;;6.32;4.30;;;22.50;99.90;;;;;;5018687;28;20132;-70
2023/07/08 07:34:14;;;;;;;6.78;4.28;;;22.60;99.90;;;;;;5015724;28;20510;-70
2023/07/08 07:36:40;;;;;;;6.32;4.15;;;22.60;99.90;;;;;;5028716;28;20045;-70
2023/07/08 07:39:06;;;;;;;6.00;4.38;;;22.70;99.90;;;;;;5030326;28;20072;-68
2023/07/08 07:41:31;;;;;;;6.35;4.35;;;22.80;99.90;;;;;;5026554;28;20067;-69
2023/07/08 07:43:57;;;;;;;5.57;4.30;;;22.80;99.90;;;;;;5028610;28;20049;-72
2023/07/08 07:46:23;;;;;;;7.38;4.32;;;22.90;99.90;;;;;;5028209;28;21203;-71
2023/07/08 07:48:51;;;;;;;6.82;4.20;;;23.00;99.90;;;;;;5036206;28;20045;-71
2023/07/08 07:51:17;;;;;;;4.82;3.90;;;23.10;99.90;;;;;;5031516;28;20037;-69
2023/07/08 07:53:43;;;;;;;7.75;4.10;;;23.20;99.90;;;;;;5036392;28;20076;-72
2023/07/08 07:56:09;;;;;;;7.40;4.43;;;23.20;99.90;;;;;;5036523;28;20055;-71
2023/07/08 07:58:34;;;;;;;7.65;4.68;;;23.30;99.90;;;;;;5031220;28;20103;-72
2023/07/08 08:01:00;;;;;;;5.75;4.05;;;23.40;99.90;;;;;;5025991;28;20057;-72
2023/07/08 08:03:26;;;;;;;10.35;4.13;;;23.50;99.90;;;;;;5055651;28;20449;-71
2023/07/08 08:05:52;;;;;;;5.50;3.58;;;23.60;99.90;;;;;;5054193;28;20049;-70
2023/07/08 08:08:19;;;;;;;6.13;4.07;;;23.70;99.90;;;;;;5055682;28;20057;-68
2023/07/08 08:10:45;;;;;;;7.47;4.07;;;23.80;99.90;;;;;;5052298;28;20071;-70
2023/07/08 08:13:11;;;;;;;7.43;4.28;;;23.90;99.60;;;;;;5038653;28;20633;-71
2023/07/08 08:15:37;;;;;;;7.43;3.95;;;23.90;99.40;;;;;;5046868;28;20731;-71
2023/07/08 08:18:03;;;;;;;6.85;3.75;;;24.00;99.40;;;;;;5054796;28;20064;-71
2023/07/08 08:20:29;;;;;;;7.18;4.57;;;24.10;99.40;;;;;;5035901;28;20051;-71
2023/07/08 08:22:55;;;;;;;5.57;3.97;;;24.20;99.60;;;;;;5055750;28;20503;-72
2023/07/08 08:25:23;;;;;;;6.40;4.20;;;24.30;99.00;;;;;;5038805;28;20097;-72
2023/07/08 08:27:48;;;;;;;6.47;3.97;;;24.40;98.60;;;;;;5054170;28;20045;-72
2023/07/08 08:30:14;;;;;;;8.13;3.97;;;24.50;98.50;;;;;;5055481;28;20055;-73
2023/07/08 08:32:40;;;;;;;7.10;4.03;;;24.60;98.10;;;;;;5056318;28;20040;-72
2023/07/08 08:35:06;;;;;;;5.10;3.88;;;24.60;98.30;;;;;;5038334;28;20549;-73
2023/07/08 08:37:32;;;;;;;7.18;4.00;;;24.70;98.10;;;;;;5031803;28;21127;-70
2023/07/08 08:39:59;;;;;;;4.85;3.83;;;24.80;97.90;;;;;;5035032;28;20168;-69
2023/07/08 08:42:32;;;;;;;5.53;4.10;;;24.90;97.90;;;;;;5050979;28;20055;-70
2023/07/08 08:45:01;;;;;;;5.88;4.00;;;25.00;97.60;;;;;;5038257;28;20141;-71
2023/07/08 08:47:43;;;;;;;6.43;3.90;;;25.10;97.40;;;;;;5054769;28;20097;-71
2023/07/08 08:50:39;;;;;;;7.53;4.20;;;25.10;97.70;;;;;;5052124;28;20064;-72
2023/07/08 08:53:13;;;;;;;6.70;3.97;;;25.20;97.50;;;;;;5034435;28;20060;-70
2023/07/08 08:55:42;;;;;;;8.05;4.47;;;25.30;97.80;;;;;;5032838;28;20047;-72
2023/07/08 08:58:30;;;;;;;6.20;3.88;;;25.40;97.50;;;;;;5034855;28;20048;-72
2023/07/08 09:01:03;;;;;;;4.95;4.35;;;25.50;97.00;;;;;;5049927;28;20056;-72
2023/07/08 09:03:37;;;;;;;7.75;3.95;;;25.50;96.80;;;;;;5041392;28;20087;-72
2023/07/08 09:06:15;;;;;;;5.25;4.07;;;25.60;96.70;;;;;;5040421;28;20040;-69
2023/07/08 09:08:42;;;;;;;5.85;4.15;;;25.70;96.20;;;;;;5034163;28;20522;-71
2023/07/08 09:11:35;;;;;;;9.38;4.97;;;25.80;96.40;;;;;;5045669;28;20049;-73
2023/07/08 09:14:00;;;;;;;5.50;4.53;;;25.90;96.30;;;;;;5045245;28;20538;-71
2023/07/08 09:16:35;;;;;;;6.25;4.20;;;25.90;96.20;;;;;;5051653;28;20135;-71
2023/07/08 09:19:12;;;;;;;5.60;4.00;;;26.00;95.40;;;;;;5031304;28;20057;-72
2023/07/08 09:21:56;;;;;;;4.95;4.22;;;26.10;95.40;;;;;;5051397;28;20041;-72
2023/07/08 09:24:49;;;;;;;6.07;4.28;;;26.20;95.40;;;;;;5033103;28;20780;-72
2023/07/08 09:27:15;;;;;;;6.00;4.13;;;26.30;95.20;;;;;;5028796;28;20060;-71
2023/07/08 09:29:40;;;;;;;7.75;4.45;;;26.30;95.40;;;;;;5036626;28;20978;-73
2023/07/08 09:32:19;;;;;;;9.97;4.37;;;26.40;95.60;;;;;;5055707;28;20046;-72
2023/07/08 09:35:05;;;;;;;6.40;4.28;;;26.40;95.10;;;;;;5047200;28;21622;-72
2023/07/08 09:37:38;;;;;;;;;;;26.50;94.50;;;;;;5030772;28;20040;-72
2023/07/08 09:40:17;;;;;;;6.85;4.07;;;26.50;94.90;;;;;;5053554;28;19928;-71
2023/07/08 09:42:48;;;;;;;6.93;4.22;;;26.60;94.80;;;;;;5053944;28;20072;-71
2023/07/08 09:45:18;;;;;;;6.45;3.90;;;26.70;94.90;;;;;;5051890;28;20097;-71
2023/07/08 09:47:45;;;;;;;5.35;4.00;;;26.80;94.10;;;;;;5052803;28;20068;-72
2023/07/08 09:50:23;;;;;;;7.22;3.83;;;26.90;93.90;;;;;;5044436;28;21816;-71
2023/07/08 09:52:51;;;;;;;6.22;3.50;;;26.90;93.60;;;;;;5051991;28;20489;-73
2023/07/08 09:55:17;;;;;;;4.75;4.00;;;27.00;93.40;;;;;;5035841;28;20095;-72
2023/07/08 09:57:46;;;;;;;5.97;4.30;;;27.10;93.10;;;;;;5029134;28;20058;-72
2023/07/08 10:00:15;;;;;;;6.15;4.25;;;27.20;93.90;;;;;;5030519;28;20052;-73
2023/07/08 10:02:52;;;;;;;6.15;4.45;;;27.30;93.30;;;;;;5025969;28;20053;-72
2023/07/08 10:05:21;;;;;;;5.80;4.40;;;27.40;92.50;;;;;;5031133;28;20488;-72
2023/07/08 10:07:49;;;;;;;5.97;4.35;;;27.50;92.30;;;;;;5031769;28;20045;-72
2023/07/08 10:10:18;;;;;;;6.35;4.22;;;27.60;92.40;;;;;;5032876;28;20040;-74
2023/07/08 10:12:57;;;;;;;6.30;4.00;;;27.60;92.00;;;;;;5028286;28;20191;-75
2023/07/08 10:15:49;;;;;;;5.43;4.18;;;27.70;91.30;;;;;;5033000;28;20840;-72
2023/07/08 10:18:17;;;;;;;7.45;4.20;;;27.90;90.90;;;;;;5025974;28;20041;-72
2023/07/08 10:21:06;;;;;;;6.53;4.40;;;27.90;90.80;;;;;;5034531;28;20053;-72
2023/07/08 10:23:50;;;;;;;6.05;4.20;;;27.90;91.00;;;;;;5034089;28;21125;-74
2023/07/08 10:26:26;;;;;;;7.85;4.55;;;28.00;90.60;;;;;;5038491;28;20045;-74
2023/07/08 10:28:58;;;;;;;6.53;4.60;;;28.10;90.10;;;;;;5031152;28;20056;-74
2023/07/08 10:31:51;;;;;;;5.65;3.90;;;28.30;89.60;;;;;;5035714;28;20065;-71
2023/07/08 10:34:36;;;;;;;7.10;4.47;;;28.40;90.00;;;;;;5031898;28;20086;-72
2023/07/08 10:37:28;;;;;;;5.63;4.03;;;28.50;88.90;;;;;;5028574;28;20053;-72
2023/07/08 10:39:54;;;;;;;4.78;3.85;;;28.60;87.30;;;;;;5026072;28;20065;-73
2023/07/08 10:42:25;;;;;;;8.60;4.30;;;28.70;86.80;;;;;;5025401;28;20167;-73
2023/07/08 10:45:34;;;;;;;6.30;3.83;;;28.80;87.10;;;;;;5024961;28;20044;-73
2023/07/08 10:48:03;;;;;;;7.93;4.60;;;28.90;85.50;;;;;;5029392;28;20124;-71
2023/07/08 10:50:54;;;;;;;5.00;4.03;;;28.90;84.70;;;;;;5030471;28;20045;-73
2023/07/08 10:54:03;;;;;;;4.82;4.00;;;29.10;85.30;;;;;;5028621;28;20049;-72
2023/07/08 10:57:04;;;;;;;6.28;4.55;;;29.30;85.20;;;;;;5023587;28;20041;-73
2023/07/08 10:59:51;;;;;;;6.57;4.25;;;29.40;84.60;;;;;;5021518;28;20129;-75
2023/07/08 11:02:26;;;;;;;6.28;4.40;;;29.40;82.70;;;;;;5055805;28;20583;-75
2023/07/08 11:05:03;;;;;;;7.32;4.13;;;29.50;83.50;;;;;;5050962;28;20044;-74
2023/07/08 11:07:32;;;;;;;6.47;4.18;;;29.60;81.80;;;;;;5042480;28;20033;-73
2023/07/08 11:10:06;;;;;;;5.10;4.13;;;29.60;80.50;;;;;;5033657;28;20044;-76
2023/07/08 11:12:42;;;;;;;7.50;4.57;;;29.70;78.80;;;;;;5049517;28;20581;-74
2023/07/08 11:15:11;;;;;;;7.13;4.17;;;29.80;77.40;;;;;;5027031;28;20393;-73
2023/07/08 11:17:44;;;;;;;6.25;4.30;;;29.80;79.10;;;;;;5047282;28;20086;-74
2023/07/08 11:20:40;;;;;;;4.78;4.00;;;29.90;78.60;;;;;;5047017;28;20531;-74
2023/07/08 11:23:29;;;;;;;6.13;4.25;;;30.10;77.80;;;;;;5050697;28;20059;-74
2023/07/08 11:26:22;;;;;;;7.55;4.38;;;30.10;77.60;;;;;;5047547;28;20631;-71
2023/07/08 11:28:51;;;;;;;6.03;4.20;;;30.10;78.30;;;;;;5020137;28;20068;-74
2023/07/08 11:31:18;;;;;;;6.75;4.63;;;30.20;77.20;;;;;;5038465;28;20547;-72
2023/07/08 11:33:44;;;;;;;;;;;30.30;76.10;;;;;;5042675;28;20136;-73
2023/07/08 11:36:11;;;;;;;23.15;5.07;;;30.40;78.40;;;;;;5047637;28;19956;-75
2023/07/08 11:38:46;;;;;;;7.78;4.47;;;30.40;75.80;;;;;;5033422;28;20052;-72
2023/07/08 11:41:16;;;;;;;6.70;4.95;;;30.50;74.70;;;;;;5049175;28;20052;-74
2023/07/08 11:43:49;;;;;;;7.57;5.10;;;30.60;74.80;;;;;;5051143;28;20491;-74
2023/07/08 11:46:20;;;;;;;7.05;4.65;;;30.70;75.00;;;;;;5053737;28;20046;-74
2023/07/08 11:48:52;;;;;;;7.35;4.57;;;30.70;74.40;;;;;;5051049;28;21235;-76
2023/07/08 11:51:26;;;;;;;6.43;4.68;;;30.80;73.70;;;;;;5056503;28;20437;-74
2023/07/08 11:54:14;;;;;;;5.70;4.85;;;30.80;74.70;;;;;;5051207;28;20095;-73
2023/07/08 11:56:57;;;;;;;5.70;4.90;;;30.90;73.70;;;;;;5030669;28;20056;-74
2023/07/08 11:59:25;;;;;;;8.82;5.13;;;31.00;72.90;;;;;;5026067;28;20064;-75
2023/07/08 12:01:53;;;;;;;6.05;5.25;;;31.00;72.00;;;;;;5053537;28;20052;-73
2023/07/08 12:04:51;;;;;;;7.45;5.15;;;31.10;71.50;;;;;;5038227;28;20502;-73
2023/07/08 12:07:20;;;;;;;7.00;5.50;;;31.20;71.20;;;;;;5046888;28;20131;-72
2023/07/08 12:10:06;;;;;;;7.68;5.78;;;31.20;69.20;;;;;;5032301;28;20462;-72
2023/07/08 12:12:36;;;;;;;6.47;5.32;;;31.30;68.40;;;;;;5043885;28;20048;-72
2023/07/08 12:15:15;;;;;;;8.10;5.90;;;31.30;66.30;;;;;;5052029;28;20049;-72
2023/07/08 12:17:41;;;;;;;7.88;5.97;;;31.50;65.90;;;;;;5035034;28;20181;-73
2023/07/08 12:20:24;;;;;;;6.10;5.32;;;31.50;65.80;;;;;;5047542;28;20052;-73
2023/07/08 12:22:50;;;;;;;6.68;5.60;;;31.60;66.20;;;;;;5051473;28;20049;-73
2023/07/08 12:25:19;;;;;;;8.48;5.47;;;31.70;64.80;;;;;;5054659;28;20047;-73
2023/07/08 12:27:46;;;;;;;6.55;5.35;;;31.80;64.20;;;;;;5052122;28;20048;-72
2023/07/08 12:30:13;;;;;;;7.13;4.70;;;31.90;64.50;;;;;;5031226;28;20056;-73
2023/07/08 12:32:43;;;;;;;9.45;5.57;;;32.00;64.80;;;;;;5050881;28;20040;-74
2023/07/08 12:35:35;;;;;;;7.72;5.55;;;32.10;65.10;;;;;;5053287;28;20885;-74
2023/07/08 12:38:28;;;;;;;7.85;5.43;;;32.10;64.30;;;;;;5030524;28;20068;-74
2023/07/08 12:41:21;;;;;;;9.00;5.95;;;32.20;63.80;;;;;;5028610;28;20431;-72
2023/07/08 12:43:48;;;;;;;10.90;5.97;;;32.30;63.30;;;;;;5048785;28;20100;-75
2023/07/08 12:46:15;;;;;;;6.55;5.60;;;32.30;61.90;;;;;;5049858;28;20051;-73
2023/07/08 12:48:41;;;;;;;8.07;5.47;;;32.40;63.20;;;;;;5026564;28;20051;-74
2023/07/08 12:51:12;;;;;;;7.75;5.88;;;32.40;61.60;;;;;;5032749;28;20048;-73
2023/07/08 12:53:38;;;;;;;9.02;6.10;;;32.50;62.00;;;;;;5033850;28;20048;-71
2023/07/08 12:56:04;;;;;;;7.83;5.97;;;32.60;62.20;;;;;;5043105;28;20044;-72
2023/07/08 12:58:31;;;;;;;;;;;32.60;60.70;;;;;;5050017;28;20048;-74
2023/07/08 13:01:00;;;;;;;8.00;6.00;;;32.70;61.10;;;;;;5022784;28;20011;-75
2023/07/08 13:03:30;;;;;;;7.82;6.00;;;32.70;59.10;;;;;;5030415;28;20060;-75